sensor_id;sensor_type;location;lat;lon;timestamp;temperature;humidity
14993;DHT22;7592;51.088;13.732;2022-11-20T00:02:12;-4.70;99.90
14993;DHT22;7592;51.088;13.732;2022-11-20T00:07:04;-4.70;99.90
14993;DHT22;7592;51.088;13.732;2022-11-20T00:11:59;-4.80;99.90
14993;DHT22;7592;51.088;13.732;2022-11-20T00:16:51;-4.90;99.90
14993;DHT22;7592;51.088;13.732;2022-11-20T00:21:43;-5.00;99.90
14993;DHT22;7592;51.088;13.732;2022-11-20T00:26:35;-5.00;99.90
14993;DHT22;7592;51.088;13.732;2022-11-20T00:31:29;-5.00;99.90
14993;DHT22;7592;51.088;13.732;2022-11-20T00:36:23;-5.00;99.90
14993;DHT22;7592;51.088;13.732;2022-11-20T00:41:16;-4.80;99.90
14993;DHT22;7592;51.088;13.732;2022-11-20T00:46:17;-4.80;99.90
14993;DHT22;7592;51.088;13.732;2022-11-20T00:51:12;-4.80;99.90
14993;DHT22;7592;51.088;13.732;2022-11-20T00:56:07;-4.70;99.90
14993;DHT22;7592;51.088;13.732;2022-11-20T01:01:00;-4.70;99.90
14993;DHT22;7592;51.088;13.732;2022-11-20T01:05:53;-4.70;99.90
14993;DHT22;7592;51.088;13.732;2022-11-20T01:10:45;-4.80;99.90
14993;DHT22;7592;51.088;13.732;2022-11-20T01:15:37;-4.90;99.90
14993;DHT22;7592;51.088;13.732;2022-11-20T01:20:29;-4.90;99.90
14993;DHT22;7592;51.088;13.732;2022-11-20T01:25:22;-4.90;99.90
14993;DHT22;7592;51.088;13.732;2022-11-20T01:30:14;-4.90;99.90
14993;DHT22;7592;51.088;13.732;2022-11-20T01:35:06;-4.90;99.90
14993;DHT22;7592;51.088;13.732;2022-11-20T01:39:58;-5.00;99.90
14993;DHT22;7592;51.088;13.732;2022-11-20T01:44:54;-5.00;99.90
14993;DHT22;7592;51.088;13.732;2022-11-20T01:49:55;-5.00;99.90
14993;DHT22;7592;51.088;13.732;2022-11-20T01:54:56;-5.00;99.90
14993;DHT22;7592;51.088;13.732;2022-11-20T02:05:41;-5.00;99.90
14993;DHT22;7592;51.088;13.732;2022-11-20T02:10:36;-5.10;99.90
14993;DHT22;7592;51.088;13.732;2022-11-20T02:15:28;-5.20;99.90
14993;DHT22;7592;51.088;13.732;2022-11-20T02:20:21;-5.20;99.90
14993;DHT22;7592;51.088;13.732;2022-11-20T02:25:14;-5.30;99.90
14993;DHT22;7592;51.088;13.732;2022-11-20T02:30:07;-5.40;99.90
14993;DHT22;7592;51.088;13.732;2022-11-20T02:35:39;-5.30;99.90
14993;DHT22;7592;51.088;13.732;2022-11-20T02:40:22;-5.20;99.90
14993;DHT22;7592;51.088;13.732;2022-11-20T02:45:14;-5.10;99.90
14993;DHT22;7592;51.088;13.732;2022-11-20T02:50:08;-5.10;99.90
14993;DHT22;7592;51.088;13.732;2022-11-20T02:55:00;-5.20;99.90
14993;DHT22;7592;51.088;13.732;2022-11-20T02:59:52;-5.20;99.90
14993;DHT22;7592;51.088;13.732;2022-11-20T03:04:45;-5.20;99.90
14993;DHT22;7592;51.088;13.732;2022-11-20T03:09:38;-5.10;99.90
14993;DHT22;7592;51.088;13.732;2022-11-20T03:14:30;-5.20;99.90
14993;DHT22;7592;51.088;13.732;2022-11-20T03:19:23;-5.30;99.90
14993;DHT22;7592;51.088;13.732;2022-11-20T03:24:15;-5.30;99.90
14993;DHT22;7592;51.088;13.732;2022-11-20T03:29:07;-5.40;99.90
14993;DHT22;7592;51.088;13.732;2022-11-20T03:34:00;-5.50;99.90
14993;DHT22;7592;51.088;13.732;2022-11-20T03:38:54;-5.50;99.90
14993;DHT22;7592;51.088;13.732;2022-11-20T03:43:51;-5.60;99.90
14993;DHT22;7592;51.088;13.732;2022-11-20T03:48:44;-5.60;99.90
14993;DHT22;7592;51.088;13.732;2022-11-20T03:53:43;-5.40;99.90
14993;DHT22;7592;51.088;13.732;2022-11-20T03:58:37;-5.40;99.90
14993;DHT22;7592;51.088;13.732;2022-11-20T04:03:31;-5.40;99.90
14993;DHT22;7592;51.088;13.732;2022-11-20T04:08:23;-5.50;99.90
14993;DHT22;7592;51.088;13.732;2022-11-20T04:13:16;-5.60;99.90
14993;DHT22;7592;51.088;13.732;2022-11-20T04:18:08;-5.60;99.90
14993;DHT22;7592;51.088;13.732;2022-11-20T04:23:00;-5.70;99.90
14993;DHT22;7592;51.088;13.732;2022-11-20T04:27:52;-5.80;99.90
14993;DHT22;7592;51.088;13.732;2022-11-20T04:32:44;-5.80;99.90
14993;DHT22;7592;51.088;13.732;2022-11-20T04:37:36;-5.70;99.90
14993;DHT22;7592;51.088;13.732;2022-11-20T04:42:28;-5.70;99.90
14993;DHT22;7592;51.088;13.732;2022-11-20T04:47:21;-5.60;99.90
14993;DHT22;7592;51.088;13.732;2022-11-20T04:52:13;-5.70;99.90
14993;DHT22;7592;51.088;13.732;2022-11-20T04:57:05;-5.70;99.90
14993;DHT22;7592;51.088;13.732;2022-11-20T05:02:05;-5.70;99.90
14993;DHT22;7592;51.088;13.732;2022-11-20T05:06:57;-5.70;99.90
14993;DHT22;7592;51.088;13.732;2022-11-20T05:11:49;-5.70;99.90
14993;DHT22;7592;51.088;13.732;2022-11-20T05:16:42;-5.70;99.90
14993;DHT22;7592;51.088;13.732;2022-11-20T05:21:34;-5.70;99.90
14993;DHT22;7592;51.088;13.732;2022-11-20T05:26:26;-5.80;99.90
14993;DHT22;7592;51.088;13.732;2022-11-20T05:31:21;-5.80;99.90
14993;DHT22;7592;51.088;13.732;2022-11-20T05:36:19;-5.80;99.90
14993;DHT22;7592;51.088;13.732;2022-11-20T05:41:17;-5.80;99.90
14993;DHT22;7592;51.088;13.732;2022-11-20T05:46:12;-5.80;99.90
14993;DHT22;7592;51.088;13.732;2022-11-20T05:51:06;-5.90;99.90
14993;DHT22;7592;51.088;13.732;2022-11-20T05:56:05;-6.00;99.90
14993;DHT22;7592;51.088;13.732;2022-11-20T06:01:09;-5.90;99.90
14993;DHT22;7592;51.088;13.732;2022-11-20T06:06:03;-5.80;99.90
14993;DHT22;7592;51.088;13.732;2022-11-20T06:10:56;-5.90;99.90
14993;DHT22;7592;51.088;13.732;2022-11-20T06:15:50;-6.00;99.90
14993;DHT22;7592;51.088;13.732;2022-11-20T06:20:42;-6.10;99.90
14993;DHT22;7592;51.088;13.732;2022-11-20T06:25:39;-6.00;99.90
14993;DHT22;7592;51.088;13.732;2022-11-20T06:30:32;-5.90;99.90
14993;DHT22;7592;51.088;13.732;2022-11-20T06:35:25;-5.80;99.90
14993;DHT22;7592;51.088;13.732;2022-11-20T06:40:18;-5.80;99.90
14993;DHT22;7592;51.088;13.732;2022-11-20T06:45:10;-5.80;99.90
14993;DHT22;7592;51.088;13.732;2022-11-20T06:50:03;-5.70;99.90
14993;DHT22;7592;51.088;13.732;2022-11-20T06:54:56;-5.70;99.90
14993;DHT22;7592;51.088;13.732;2022-11-20T06:59:48;-5.60;99.90
14993;DHT22;7592;51.088;13.732;2022-11-20T07:04:40;-5.50;99.90
14993;DHT22;7592;51.088;13.732;2022-11-20T07:09:32;-5.30;99.90
14993;DHT22;7592;51.088;13.732;2022-11-20T07:14:25;-5.20;99.90
14993;DHT22;7592;51.088;13.732;2022-11-20T07:19:20;-5.00;99.90
14993;DHT22;7592;51.088;13.732;2022-11-20T07:24:13;-4.90;99.90
14993;DHT22;7592;51.088;13.732;2022-11-20T07:29:05;-4.40;99.90
14993;DHT22;7592;51.088;13.732;2022-11-20T07:33:57;-3.70;99.90
14993;DHT22;7592;51.088;13.732;2022-11-20T07:38:49;-3.30;99.90
14993;DHT22;7592;51.088;13.732;2022-11-20T07:43:41;-2.50;99.90
14993;DHT22;7592;51.088;13.732;2022-11-20T07:48:34;-1.10;99.90
14993;DHT22;7592;51.088;13.732;2022-11-20T07:53:26;-0.90;99.90
14993;DHT22;7592;51.088;13.732;2022-11-20T07:58:19;-1.20;99.90
14993;DHT22;7592;51.088;13.732;2022-11-20T08:03:13;-1.40;99.90
14993;DHT22;7592;51.088;13.732;2022-11-20T08:08:05;-1.50;99.90
14993;DHT22;7592;51.088;13.732;2022-11-20T08:12:59;-1.40;99.90
14993;DHT22;7592;51.088;13.732;2022-11-20T08:18:11;-1.40;99.90
14993;DHT22;7592;51.088;13.732;2022-11-20T08:23:23;-1.60;99.90
14993;DHT22;7592;51.088;13.732;2022-11-20T08:28:16;-1.60;99.90
14993;DHT22;7592;51.088;13.732;2022-11-20T08:33:12;-0.70;99.90
14993;DHT22;7592;51.088;13.732;2022-11-20T08:38:05;1.30;99.90
14993;DHT22;7592;51.088;13.732;2022-11-20T08:42:57;1.50;99.90
14993;DHT22;7592;51.088;13.732;2022-11-20T08:47:49;2.50;99.90
14993;DHT22;7592;51.088;13.732;2022-11-20T08:52:42;4.50;99.90
14993;DHT22;7592;51.088;13.732;2022-11-20T08:57:36;6.60;99.90
14993;DHT22;7592;51.088;13.732;2022-11-20T09:02:31;7.80;99.90
14993;DHT22;7592;51.088;13.732;2022-11-20T09:07:24;7.40;99.90
14993;DHT22;7592;51.088;13.732;2022-11-20T09:12:16;7.60;99.90
14993;DHT22;7592;51.088;13.732;2022-11-20T09:17:10;8.30;99.90
14993;DHT22;7592;51.088;13.732;2022-11-20T09:22:05;9.20;96.10
14993;DHT22;7592;51.088;13.732;2022-11-20T09:26:58;8.90;96.20
14993;DHT22;7592;51.088;13.732;2022-11-20T09:31:51;8.30;95.00
14993;DHT22;7592;51.088;13.732;2022-11-20T09:36:44;7.70;96.80
14993;DHT22;7592;51.088;13.732;2022-11-20T09:57:11;11.70;85.70
14993;DHT22;7592;51.088;13.732;2022-11-20T10:02:35;11.70;79.60
14993;DHT22;7592;51.088;13.732;2022-11-20T10:18:07;11.40;81.80
14993;DHT22;7592;51.088;13.732;2022-11-20T10:33:23;12.60;72.10
14993;DHT22;7592;51.088;13.732;2022-11-20T10:38:28;12.70;72.60
14993;DHT22;7592;51.088;13.732;2022-11-20T10:43:32;13.40;70.80
14993;DHT22;7592;51.088;13.732;2022-11-20T10:48:27;13.00;69.30
14993;DHT22;7592;51.088;13.732;2022-11-20T10:53:37;11.60;71.80
14993;DHT22;7592;51.088;13.732;2022-11-20T11:03:33;10.90;74.80
14993;DHT22;7592;51.088;13.732;2022-11-20T11:08:27;10.90;76.30
14993;DHT22;7592;51.088;13.732;2022-11-20T11:13:25;11.70;73.20
14993;DHT22;7592;51.088;13.732;2022-11-20T11:18:28;11.70;71.80
14993;DHT22;7592;51.088;13.732;2022-11-20T11:23:42;9.70;77.60
14993;DHT22;7592;51.088;13.732;2022-11-20T11:28:34;8.10;84.10
14993;DHT22;7592;51.088;13.732;2022-11-20T11:33:31;6.70;90.50
14993;DHT22;7592;51.088;13.732;2022-11-20T11:38:38;6.10;93.60
14993;DHT22;7592;51.088;13.732;2022-11-20T11:43:34;6.40;97.40
14993;DHT22;7592;51.088;13.732;2022-11-20T11:49:17;8.80;93.30
14993;DHT22;7592;51.088;13.732;2022-11-20T11:54:24;9.30;91.80
14993;DHT22;7592;51.088;13.732;2022-11-20T12:04:54;7.50;94.70
14993;DHT22;7592;51.088;13.732;2022-11-20T12:09:52;6.50;98.00
14993;DHT22;7592;51.088;13.732;2022-11-20T12:14:48;5.60;99.90
14993;DHT22;7592;51.088;13.732;2022-11-20T12:19:46;5.00;99.90
14993;DHT22;7592;51.088;13.732;2022-11-20T12:40:23;4.80;99.90
14993;DHT22;7592;51.088;13.732;2022-11-20T12:51:23;4.40;99.90
14993;DHT22;7592;51.088;13.732;2022-11-20T13:07:17;3.90;99.90
14993;DHT22;7592;51.088;13.732;2022-11-20T13:12:44;3.90;99.90
14993;DHT22;7592;51.088;13.732;2022-11-20T13:17:56;4.00;99.90
14993;DHT22;7592;51.088;13.732;2022-11-20T13:22:58;4.00;99.90
14993;DHT22;7592;51.088;13.732;2022-11-20T13:27:55;4.10;99.90
14993;DHT22;7592;51.088;13.732;2022-11-20T13:33:24;4.00;99.90
14993;DHT22;7592;51.088;13.732;2022-11-20T13:38:23;4.00;99.90
14993;DHT22;7592;51.088;13.732;2022-11-20T13:43:36;4.00;99.90
14993;DHT22;7592;51.088;13.732;2022-11-20T13:48:38;4.00;99.90
14993;DHT22;7592;51.088;13.732;2022-11-20T13:59:02;3.80;99.90
14993;DHT22;7592;51.088;13.732;2022-11-20T14:04:30;3.70;99.90
14993;DHT22;7592;51.088;13.732;2022-11-20T14:09:35;3.60;99.90
14993;DHT22;7592;51.088;13.732;2022-11-20T14:14:33;3.40;99.90
14993;DHT22;7592;51.088;13.732;2022-11-20T14:19:29;3.30;99.90
14993;DHT22;7592;51.088;13.732;2022-11-20T14:24:34;3.00;99.90
14993;DHT22;7592;51.088;13.732;2022-11-20T14:29:29;2.70;99.90
14993;DHT22;7592;51.088;13.732;2022-11-20T14:34:30;2.50;99.90
14993;DHT22;7592;51.088;13.732;2022-11-20T14:45:00;1.90;99.90
14993;DHT22;7592;51.088;13.732;2022-11-20T14:49:56;1.60;99.90
14993;DHT22;7592;51.088;13.732;2022-11-20T14:55:07;1.40;99.90
14993;DHT22;7592;51.088;13.732;2022-11-20T15:00:19;1.20;99.90
14993;DHT22;7592;51.088;13.732;2022-11-20T15:05:50;0.90;99.90
14993;DHT22;7592;51.088;13.732;2022-11-20T15:10:51;0.80;99.90
14993;DHT22;7592;51.088;13.732;2022-11-20T15:15:49;0.50;99.90
14993;DHT22;7592;51.088;13.732;2022-11-20T15:20:47;0.20;99.90
14993;DHT22;7592;51.088;13.732;2022-11-20T15:25:58;0.10;99.90
14993;DHT22;7592;51.088;13.732;2022-11-20T15:30:58;0.00;99.90
14993;DHT22;7592;51.088;13.732;2022-11-20T15:36:01;-0.20;99.90
14993;DHT22;7592;51.088;13.732;2022-11-20T15:40:59;-0.30;99.90
14993;DHT22;7592;51.088;13.732;2022-11-20T15:46:03;-0.40;99.90
14993;DHT22;7592;51.088;13.732;2022-11-20T15:56:12;-0.60;99.90
14993;DHT22;7592;51.088;13.732;2022-11-20T16:01:12;-0.60;99.90
14993;DHT22;7592;51.088;13.732;2022-11-20T16:06:06;-0.60;99.90
14993;DHT22;7592;51.088;13.732;2022-11-20T16:10:58;-0.60;99.90
14993;DHT22;7592;51.088;13.732;2022-11-20T16:15:53;-0.60;99.90
14993;DHT22;7592;51.088;13.732;2022-11-20T16:20:51;-0.60;99.90
14993;DHT22;7592;51.088;13.732;2022-11-20T16:25:47;-0.60;99.90
14993;DHT22;7592;51.088;13.732;2022-11-20T16:30:39;-0.60;99.90
14993;DHT22;7592;51.088;13.732;2022-11-20T16:35:32;-0.70;99.90
14993;DHT22;7592;51.088;13.732;2022-11-20T16:40:24;-0.90;99.90
14993;DHT22;7592;51.088;13.732;2022-11-20T16:45:25;-1.00;99.90
14993;DHT22;7592;51.088;13.732;2022-11-20T16:50:24;-1.10;99.90
14993;DHT22;7592;51.088;13.732;2022-11-20T16:55:29;-1.10;99.90
14993;DHT22;7592;51.088;13.732;2022-11-20T17:00:38;-1.20;99.90
14993;DHT22;7592;51.088;13.732;2022-11-20T17:05:31;-1.10;99.90
14993;DHT22;7592;51.088;13.732;2022-11-20T17:10:28;-1.10;99.90
14993;DHT22;7592;51.088;13.732;2022-11-20T17:15:24;-1.20;99.90
14993;DHT22;7592;51.088;13.732;2022-11-20T17:20:20;-1.20;99.90
14993;DHT22;7592;51.088;13.732;2022-11-20T17:25:18;-1.30;99.90
14993;DHT22;7592;51.088;13.732;2022-11-20T17:30:13;-1.40;99.90
14993;DHT22;7592;51.088;13.732;2022-11-20T17:35:06;-1.50;99.90
14993;DHT22;7592;51.088;13.732;2022-11-20T17:39:59;-1.60;99.90
14993;DHT22;7592;51.088;13.732;2022-11-20T17:44:51;-1.50;99.90
14993;DHT22;7592;51.088;13.732;2022-11-20T17:49:44;-1.50;99.90
14993;DHT22;7592;51.088;13.732;2022-11-20T17:54:43;-1.50;99.90
14993;DHT22;7592;51.088;13.732;2022-11-20T17:59:42;-1.40;99.90
14993;DHT22;7592;51.088;13.732;2022-11-20T18:09:59;-1.40;99.90
14993;DHT22;7592;51.088;13.732;2022-11-20T18:14:54;-1.50;99.90
14993;DHT22;7592;51.088;13.732;2022-11-20T18:19:48;-1.50;99.90
14993;DHT22;7592;51.088;13.732;2022-11-20T18:25:06;-1.60;99.90
14993;DHT22;7592;51.088;13.732;2022-11-20T18:30:09;-1.50;99.90
14993;DHT22;7592;51.088;13.732;2022-11-20T18:35:03;-1.60;99.90
14993;DHT22;7592;51.088;13.732;2022-11-20T18:39:56;-1.60;99.90
14993;DHT22;7592;51.088;13.732;2022-11-20T18:44:48;-1.70;99.90
14993;DHT22;7592;51.088;13.732;2022-11-20T18:49:43;-1.80;99.90
14993;DHT22;7592;51.088;13.732;2022-11-20T18:54:42;-1.90;99.90
14993;DHT22;7592;51.088;13.732;2022-11-20T18:59:37;-2.00;99.90
14993;DHT22;7592;51.088;13.732;2022-11-20T19:04:29;-2.00;99.90
14993;DHT22;7592;51.088;13.732;2022-11-20T19:09:25;-2.00;99.90
14993;DHT22;7592;51.088;13.732;2022-11-20T19:14:22;-2.00;99.90
14993;DHT22;7592;51.088;13.732;2022-11-20T19:19:16;-2.10;99.90
14993;DHT22;7592;51.088;13.732;2022-11-20T19:24:09;-2.10;99.90
14993;DHT22;7592;51.088;13.732;2022-11-20T19:29:03;-2.30;99.90
14993;DHT22;7592;51.088;13.732;2022-11-20T19:34:01;-2.20;99.90
14993;DHT22;7592;51.088;13.732;2022-11-20T19:38:54;-2.30;99.90
14993;DHT22;7592;51.088;13.732;2022-11-20T19:43:48;-2.30;99.90
14993;DHT22;7592;51.088;13.732;2022-11-20T19:48:43;-2.50;99.90
14993;DHT22;7592;51.088;13.732;2022-11-20T19:53:44;-2.50;99.90
14993;DHT22;7592;51.088;13.732;2022-11-20T20:18:13;-2.70;99.90
14993;DHT22;7592;51.088;13.732;2022-11-20T20:23:09;-2.70;99.90
14993;DHT22;7592;51.088;13.732;2022-11-20T20:28:04;-2.70;99.90
14993;DHT22;7592;51.088;13.732;2022-11-20T20:32:56;-2.40;99.90
14993;DHT22;7592;51.088;13.732;2022-11-20T20:37:52;-2.10;99.90
14993;DHT22;7592;51.088;13.732;2022-11-20T20:42:47;-1.80;99.90
14993;DHT22;7592;51.088;13.732;2022-11-20T20:47:40;-1.50;99.90
14993;DHT22;7592;51.088;13.732;2022-11-20T20:53:13;-1.30;99.90
14993;DHT22;7592;51.088;13.732;2022-11-20T20:58:07;-1.10;99.90
14993;DHT22;7592;51.088;13.732;2022-11-20T21:03:01;-0.90;99.90
14993;DHT22;7592;51.088;13.732;2022-11-20T21:07:56;-0.90;99.90
14993;DHT22;7592;51.088;13.732;2022-11-20T21:13:07;-1.00;99.90
14993;DHT22;7592;51.088;13.732;2022-11-20T21:18:01;-0.90;99.90
14993;DHT22;7592;51.088;13.732;2022-11-20T21:22:56;-0.90;99.90
14993;DHT22;7592;51.088;13.732;2022-11-20T21:27:50;-1.00;99.90
14993;DHT22;7592;51.088;13.732;2022-11-20T21:32:46;-0.90;99.90
14993;DHT22;7592;51.088;13.732;2022-11-20T21:37:38;-0.60;99.90
14993;DHT22;7592;51.088;13.732;2022-11-20T21:42:31;-0.50;99.90
14993;DHT22;7592;51.088;13.732;2022-11-20T21:47:25;-0.40;99.90
14993;DHT22;7592;51.088;13.732;2022-11-20T21:52:18;-0.40;99.90
14993;DHT22;7592;51.088;13.732;2022-11-20T21:57:10;-0.30;99.90
14993;DHT22;7592;51.088;13.732;2022-11-20T22:02:03;-0.20;99.90
14993;DHT22;7592;51.088;13.732;2022-11-20T22:06:55;-0.10;99.90
14993;DHT22;7592;51.088;13.732;2022-11-20T22:11:47;-0.20;99.90
14993;DHT22;7592;51.088;13.732;2022-11-20T22:16:39;-0.20;99.90
14993;DHT22;7592;51.088;13.732;2022-11-20T22:21:32;-0.10;99.90
14993;DHT22;7592;51.088;13.732;2022-11-20T22:26:27;0.00;99.90
14993;DHT22;7592;51.088;13.732;2022-11-20T22:31:21;0.00;99.90
14993;DHT22;7592;51.088;13.732;2022-11-20T22:36:16;0.20;99.90
14993;DHT22;7592;51.088;13.732;2022-11-20T22:41:10;0.10;99.90
14993;DHT22;7592;51.088;13.732;2022-11-20T22:51:08;0.30;99.90
14993;DHT22;7592;51.088;13.732;2022-11-20T22:56:01;0.30;99.90
14993;DHT22;7592;51.088;13.732;2022-11-20T23:00:54;0.40;99.90
14993;DHT22;7592;51.088;13.732;2022-11-20T23:05:46;0.40;99.90
14993;DHT22;7592;51.088;13.732;2022-11-20T23:10:38;0.40;99.90
14993;DHT22;7592;51.088;13.732;2022-11-20T23:15:32;0.50;99.90
14993;DHT22;7592;51.088;13.732;2022-11-20T23:20:24;0.60;99.90
14993;DHT22;7592;51.088;13.732;2022-11-20T23:25:17;0.60;99.90
14993;DHT22;7592;51.088;13.732;2022-11-20T23:30:09;0.60;99.90
14993;DHT22;7592;51.088;13.732;2022-11-20T23:35:01;0.70;99.90
14993;DHT22;7592;51.088;13.732;2022-11-20T23:39:56;0.70;99.90
14993;DHT22;7592;51.088;13.732;2022-11-20T23:44:48;0.60;99.90
14993;DHT22;7592;51.088;13.732;2022-11-20T23:49:41;0.70;99.90
14993;DHT22;7592;51.088;13.732;2022-11-20T23:54:33;0.70;99.90
14993;DHT22;7592;51.088;13.732;2022-11-20T23:59:25;0.70;99.90
